sensor_id;sensor_type;location;lat;lon;timestamp;P1;durP1;ratioP1;P2;durP2;ratioP2
23702;SDS011;12030;50.376;8.762;2022-12-31T00:00:36;3.10;;;2.70;;
23702;SDS011;12030;50.376;8.762;2022-12-31T00:03:03;2.83;;;2.57;;
23702;SDS011;12030;50.376;8.762;2022-12-31T00:05:31;2.87;;;2.63;;
23702;SDS011;12030;50.376;8.762;2022-12-31T00:07:57;2.80;;;2.60;;
23702;SDS011;12030;50.376;8.762;2022-12-31T00:10:23;3.07;;;2.77;;
23702;SDS011;12030;50.376;8.762;2022-12-31T00:12:49;2.90;;;2.63;;
23702;SDS011;12030;50.376;8.762;2022-12-31T00:15:14;3.57;;;3.27;;
23702;SDS011;12030;50.376;8.762;2022-12-31T00:17:40;4.10;;;3.10;;
23702;SDS011;12030;50.376;8.762;2022-12-31T00:20:06;3.80;;;3.40;;
23702;SDS011;12030;50.376;8.762;2022-12-31T00:22:32;3.73;;;3.43;;
23702;SDS011;12030;50.376;8.762;2022-12-31T00:24:58;4.30;;;3.30;;
23702;SDS011;12030;50.376;8.762;2022-12-31T00:27:24;2.87;;;2.63;;
23702;SDS011;12030;50.376;8.762;2022-12-31T00:29:49;2.77;;;2.53;;
23702;SDS011;12030;50.376;8.762;2022-12-31T00:32:15;3.27;;;2.50;;
23702;SDS011;12030;50.376;8.762;2022-12-31T00:34:40;3.00;;;2.70;;
23702;SDS011;12030;50.376;8.762;2022-12-31T00:37:06;3.03;;;2.30;;
23702;SDS011;12030;50.376;8.762;2022-12-31T00:39:31;2.57;;;1.93;;
23702;SDS011;12030;50.376;8.762;2022-12-31T00:41:57;2.57;;;1.90;;
23702;SDS011;12030;50.376;8.762;2022-12-31T00:44:23;4.17;;;2.00;;
23702;SDS011;12030;50.376;8.762;2022-12-31T00:46:48;2.10;;;1.90;;
23702;SDS011;12030;50.376;8.762;2022-12-31T00:49:14;2.50;;;1.70;;
23702;SDS011;12030;50.376;8.762;2022-12-31T00:51:39;1.87;;;1.43;;
23702;SDS011;12030;50.376;8.762;2022-12-31T00:54:05;3.10;;;1.70;;
23702;SDS011;12030;50.376;8.762;2022-12-31T00:56:32;1.60;;;1.43;;
23702;SDS011;12030;50.376;8.762;2022-12-31T00:58:58;2.20;;;1.50;;
23702;SDS011;12030;50.376;8.762;2022-12-31T01:01:28;1.53;;;1.23;;
23702;SDS011;12030;50.376;8.762;2022-12-31T01:04:11;2.20;;;1.20;;
23702;SDS011;12030;50.376;8.762;2022-12-31T01:06:39;1.50;;;1.23;;
23702;SDS011;12030;50.376;8.762;2022-12-31T01:09:06;4.93;;;1.40;;
23702;SDS011;12030;50.376;8.762;2022-12-31T01:11:32;1.50;;;1.37;;
23702;SDS011;12030;50.376;8.762;2022-12-31T01:13:59;1.53;;;1.10;;
23702;SDS011;12030;50.376;8.762;2022-12-31T01:16:27;2.23;;;1.37;;
23702;SDS011;12030;50.376;8.762;2022-12-31T01:18:58;2.30;;;1.20;;
23702;SDS011;12030;50.376;8.762;2022-12-31T01:21:24;2.67;;;1.30;;
23702;SDS011;12030;50.376;8.762;2022-12-31T01:23:50;3.03;;;1.23;;
23702;SDS011;12030;50.376;8.762;2022-12-31T01:26:16;1.73;;;1.20;;
23702;SDS011;12030;50.376;8.762;2022-12-31T01:28:43;2.70;;;1.73;;
23702;SDS011;12030;50.376;8.762;2022-12-31T01:31:10;1.57;;;1.47;;
23702;SDS011;12030;50.376;8.762;2022-12-31T01:33:37;1.47;;;1.20;;
23702;SDS011;12030;50.376;8.762;2022-12-31T01:36:04;1.07;;;1.03;;
23702;SDS011;12030;50.376;8.762;2022-12-31T01:38:32;4.43;;;1.30;;
23702;SDS011;12030;50.376;8.762;2022-12-31T01:40:58;1.33;;;1.20;;
23702;SDS011;12030;50.376;8.762;2022-12-31T01:43:39;2.23;;;1.23;;
23702;SDS011;12030;50.376;8.762;2022-12-31T01:46:06;1.27;;;1.10;;
23702;SDS011;12030;50.376;8.762;2022-12-31T01:48:33;1.27;;;1.00;;
23702;SDS011;12030;50.376;8.762;2022-12-31T01:50:59;1.27;;;1.00;;
23702;SDS011;12030;50.376;8.762;2022-12-31T01:53:24;2.33;;;1.00;;
23702;SDS011;12030;50.376;8.762;2022-12-31T01:55:51;1.43;;;1.00;;
23702;SDS011;12030;50.376;8.762;2022-12-31T01:58:36;1.17;;;0.90;;
23702;SDS011;12030;50.376;8.762;2022-12-31T02:01:07;1.17;;;1.00;;
23702;SDS011;12030;50.376;8.762;2022-12-31T02:03:35;3.20;;;0.93;;
23702;SDS011;12030;50.376;8.762;2022-12-31T02:08:58;1.10;;;0.60;;
23702;SDS011;12030;50.376;8.762;2022-12-31T02:13:57;1.23;;;0.80;;
23702;SDS011;12030;50.376;8.762;2022-12-31T02:19:07;3.53;;;0.80;;
23702;SDS011;12030;50.376;8.762;2022-12-31T02:24:31;1.43;;;0.80;;
23702;SDS011;12030;50.376;8.762;2022-12-31T02:27:22;0.50;;;0.50;;
23702;SDS011;12030;50.376;8.762;2022-12-31T02:35:36;0.77;;;0.40;;
23702;SDS011;12030;50.376;8.762;2022-12-31T02:38:23;1.80;;;0.70;;
23702;SDS011;12030;50.376;8.762;2022-12-31T02:40:54;0.73;;;0.57;;
23702;SDS011;12030;50.376;8.762;2022-12-31T02:43:20;0.93;;;0.63;;
23702;SDS011;12030;50.376;8.762;2022-12-31T02:45:47;0.50;;;0.50;;
23702;SDS011;12030;50.376;8.762;2022-12-31T02:48:25;0.70;;;0.67;;
23702;SDS011;12030;50.376;8.762;2022-12-31T02:57:19;0.93;;;0.50;;
23702;SDS011;12030;50.376;8.762;2022-12-31T03:00:08;1.27;;;0.50;;
23702;SDS011;12030;50.376;8.762;2022-12-31T03:02:55;1.43;;;0.40;;
23702;SDS011;12030;50.376;8.762;2022-12-31T03:05:24;1.60;;;0.50;;
23702;SDS011;12030;50.376;8.762;2022-12-31T03:07:53;1.67;;;0.50;;
23702;SDS011;12030;50.376;8.762;2022-12-31T03:10:18;0.90;;;0.50;;
23702;SDS011;12030;50.376;8.762;2022-12-31T03:12:45;2.83;;;0.63;;
23702;SDS011;12030;50.376;8.762;2022-12-31T03:20:22;0.93;;;0.33;;
23702;SDS011;12030;50.376;8.762;2022-12-31T03:23:13;0.93;;;0.53;;
23702;SDS011;12030;50.376;8.762;2022-12-31T03:25:41;0.57;;;0.40;;
23702;SDS011;12030;50.376;8.762;2022-12-31T03:28:09;0.60;;;0.50;;
23702;SDS011;12030;50.376;8.762;2022-12-31T03:30:37;1.27;;;0.50;;
23702;SDS011;12030;50.376;8.762;2022-12-31T03:33:05;1.10;;;0.50;;
23702;SDS011;12030;50.376;8.762;2022-12-31T03:35:31;2.90;;;0.60;;
23702;SDS011;12030;50.376;8.762;2022-12-31T03:37:58;2.10;;;0.60;;
23702;SDS011;12030;50.376;8.762;2022-12-31T03:40:25;0.83;;;0.50;;
23702;SDS011;12030;50.376;8.762;2022-12-31T03:42:52;0.90;;;0.63;;
23702;SDS011;12030;50.376;8.762;2022-12-31T03:45:18;1.30;;;0.53;;
23702;SDS011;12030;50.376;8.762;2022-12-31T03:47:44;1.33;;;0.77;;
23702;SDS011;12030;50.376;8.762;2022-12-31T03:50:10;1.40;;;0.60;;
23702;SDS011;12030;50.376;8.762;2022-12-31T03:52:36;2.23;;;0.50;;
23702;SDS011;12030;50.376;8.762;2022-12-31T03:55:02;1.87;;;0.77;;
23702;SDS011;12030;50.376;8.762;2022-12-31T03:57:28;2.97;;;0.70;;
23702;SDS011;12030;50.376;8.762;2022-12-31T03:59:54;0.90;;;0.80;;
23702;SDS011;12030;50.376;8.762;2022-12-31T04:02:20;2.77;;;0.80;;
23702;SDS011;12030;50.376;8.762;2022-12-31T04:04:45;1.50;;;1.03;;
23702;SDS011;12030;50.376;8.762;2022-12-31T04:07:11;1.77;;;0.90;;
23702;SDS011;12030;50.376;8.762;2022-12-31T04:09:36;1.87;;;0.87;;
23702;SDS011;12030;50.376;8.762;2022-12-31T04:12:02;1.90;;;0.80;;
23702;SDS011;12030;50.376;8.762;2022-12-31T04:14:27;2.30;;;0.83;;
23702;SDS011;12030;50.376;8.762;2022-12-31T04:16:53;3.57;;;0.90;;
23702;SDS011;12030;50.376;8.762;2022-12-31T04:19:18;3.60;;;1.10;;
23702;SDS011;12030;50.376;8.762;2022-12-31T04:21:44;1.87;;;0.93;;
23702;SDS011;12030;50.376;8.762;2022-12-31T04:24:09;1.20;;;0.90;;
23702;SDS011;12030;50.376;8.762;2022-12-31T04:26:35;2.57;;;0.97;;
23702;SDS011;12030;50.376;8.762;2022-12-31T04:29:02;2.47;;;0.77;;
23702;SDS011;12030;50.376;8.762;2022-12-31T04:31:28;2.33;;;1.20;;
23702;SDS011;12030;50.376;8.762;2022-12-31T04:33:53;1.30;;;0.90;;
23702;SDS011;12030;50.376;8.762;2022-12-31T04:36:19;2.43;;;0.97;;
23702;SDS011;12030;50.376;8.762;2022-12-31T04:38:45;2.23;;;0.83;;
23702;SDS011;12030;50.376;8.762;2022-12-31T04:41:10;1.50;;;1.00;;
23702;SDS011;12030;50.376;8.762;2022-12-31T04:43:42;1.60;;;0.70;;
23702;SDS011;12030;50.376;8.762;2022-12-31T04:46:13;1.97;;;1.00;;
23702;SDS011;12030;50.376;8.762;2022-12-31T04:48:39;1.47;;;0.80;;
23702;SDS011;12030;50.376;8.762;2022-12-31T04:51:05;1.67;;;0.80;;
23702;SDS011;12030;50.376;8.762;2022-12-31T04:53:31;1.40;;;0.83;;
23702;SDS011;12030;50.376;8.762;2022-12-31T04:55:56;1.33;;;0.90;;
23702;SDS011;12030;50.376;8.762;2022-12-31T04:58:22;2.57;;;1.10;;
23702;SDS011;12030;50.376;8.762;2022-12-31T05:00:49;3.10;;;0.77;;
23702;SDS011;12030;50.376;8.762;2022-12-31T05:03:16;1.57;;;0.80;;
23702;SDS011;12030;50.376;8.762;2022-12-31T05:05:43;1.97;;;0.80;;
23702;SDS011;12030;50.376;8.762;2022-12-31T05:08:09;1.47;;;0.80;;
23702;SDS011;12030;50.376;8.762;2022-12-31T05:10:35;1.00;;;0.90;;
23702;SDS011;12030;50.376;8.762;2022-12-31T05:13:00;1.23;;;1.00;;
23702;SDS011;12030;50.376;8.762;2022-12-31T05:15:26;1.93;;;0.90;;
23702;SDS011;12030;50.376;8.762;2022-12-31T05:17:52;1.33;;;0.90;;
23702;SDS011;12030;50.376;8.762;2022-12-31T05:20:17;1.10;;;0.80;;
23702;SDS011;12030;50.376;8.762;2022-12-31T05:22:43;1.70;;;0.90;;
23702;SDS011;12030;50.376;8.762;2022-12-31T05:25:08;1.83;;;1.00;;
23702;SDS011;12030;50.376;8.762;2022-12-31T05:27:34;1.03;;;0.90;;
23702;SDS011;12030;50.376;8.762;2022-12-31T05:30:02;1.57;;;1.10;;
23702;SDS011;12030;50.376;8.762;2022-12-31T05:32:31;0.87;;;0.77;;
23702;SDS011;12030;50.376;8.762;2022-12-31T05:34:57;2.27;;;1.00;;
23702;SDS011;12030;50.376;8.762;2022-12-31T05:37:23;2.20;;;1.10;;
23702;SDS011;12030;50.376;8.762;2022-12-31T05:39:49;2.63;;;1.10;;
23702;SDS011;12030;50.376;8.762;2022-12-31T05:42:15;1.83;;;0.97;;
23702;SDS011;12030;50.376;8.762;2022-12-31T05:44:40;2.53;;;1.40;;
23702;SDS011;12030;50.376;8.762;2022-12-31T05:47:06;2.03;;;0.90;;
23702;SDS011;12030;50.376;8.762;2022-12-31T05:49:31;1.60;;;0.93;;
23702;SDS011;12030;50.376;8.762;2022-12-31T05:51:57;3.57;;;1.13;;
23702;SDS011;12030;50.376;8.762;2022-12-31T05:54:22;3.33;;;0.90;;
23702;SDS011;12030;50.376;8.762;2022-12-31T05:56:48;2.37;;;1.10;;
23702;SDS011;12030;50.376;8.762;2022-12-31T05:59:13;1.60;;;0.80;;
23702;SDS011;12030;50.376;8.762;2022-12-31T06:01:39;1.43;;;1.00;;
23702;SDS011;12030;50.376;8.762;2022-12-31T06:04:04;1.47;;;0.90;;
23702;SDS011;12030;50.376;8.762;2022-12-31T06:06:30;2.00;;;0.70;;
23702;SDS011;12030;50.376;8.762;2022-12-31T06:08:56;2.10;;;1.10;;
23702;SDS011;12030;50.376;8.762;2022-12-31T06:11:21;2.10;;;0.80;;
23702;SDS011;12030;50.376;8.762;2022-12-31T06:13:47;1.17;;;0.83;;
23702;SDS011;12030;50.376;8.762;2022-12-31T06:16:12;1.50;;;0.90;;
23702;SDS011;12030;50.376;8.762;2022-12-31T06:18:38;1.43;;;0.80;;
23702;SDS011;12030;50.376;8.762;2022-12-31T06:21:04;1.43;;;0.80;;
23702;SDS011;12030;50.376;8.762;2022-12-31T06:23:29;1.97;;;0.80;;
23702;SDS011;12030;50.376;8.762;2022-12-31T06:25:55;2.03;;;1.00;;
23702;SDS011;12030;50.376;8.762;2022-12-31T06:28:21;3.23;;;0.80;;
23702;SDS011;12030;50.376;8.762;2022-12-31T06:30:47;2.13;;;1.00;;
23702;SDS011;12030;50.376;8.762;2022-12-31T06:33:12;1.40;;;0.80;;
23702;SDS011;12030;50.376;8.762;2022-12-31T06:35:38;2.20;;;0.90;;
23702;SDS011;12030;50.376;8.762;2022-12-31T06:38:03;2.23;;;0.80;;
23702;SDS011;12030;50.376;8.762;2022-12-31T06:40:29;3.53;;;0.90;;
23702;SDS011;12030;50.376;8.762;2022-12-31T06:42:54;1.57;;;0.80;;
23702;SDS011;12030;50.376;8.762;2022-12-31T06:45:20;1.70;;;1.10;;
23702;SDS011;12030;50.376;8.762;2022-12-31T06:47:45;0.83;;;0.70;;
23702;SDS011;12030;50.376;8.762;2022-12-31T06:50:11;2.90;;;1.03;;
23702;SDS011;12030;50.376;8.762;2022-12-31T06:52:36;1.23;;;0.90;;
23702;SDS011;12030;50.376;8.762;2022-12-31T06:55:03;1.23;;;0.80;;
23702;SDS011;12030;50.376;8.762;2022-12-31T06:57:29;1.57;;;0.90;;
23702;SDS011;12030;50.376;8.762;2022-12-31T06:59:55;1.30;;;0.80;;
23702;SDS011;12030;50.376;8.762;2022-12-31T07:05:20;1.73;;;0.90;;
23702;SDS011;12030;50.376;8.762;2022-12-31T07:08:11;1.53;;;0.90;;
23702;SDS011;12030;50.376;8.762;2022-12-31T07:11:06;0.87;;;0.80;;
23702;SDS011;12030;50.376;8.762;2022-12-31T07:22:00;1.80;;;0.90;;
23702;SDS011;12030;50.376;8.762;2022-12-31T07:24:27;2.20;;;1.20;;
23702;SDS011;12030;50.376;8.762;2022-12-31T07:27:01;1.33;;;0.80;;
23702;SDS011;12030;50.376;8.762;2022-12-31T07:34:45;1.93;;;0.80;;
23702;SDS011;12030;50.376;8.762;2022-12-31T07:37:34;2.43;;;0.70;;
23702;SDS011;12030;50.376;8.762;2022-12-31T07:40:31;1.23;;;0.70;;
23702;SDS011;12030;50.376;8.762;2022-12-31T07:48:59;2.87;;;0.80;;
23702;SDS011;12030;50.376;8.762;2022-12-31T07:51:25;1.77;;;0.87;;
23702;SDS011;12030;50.376;8.762;2022-12-31T07:53:51;2.27;;;1.00;;
23702;SDS011;12030;50.376;8.762;2022-12-31T07:56:17;1.73;;;0.80;;
23702;SDS011;12030;50.376;8.762;2022-12-31T08:01:34;1.73;;;0.63;;
23702;SDS011;12030;50.376;8.762;2022-12-31T08:04:23;2.13;;;0.93;;
23702;SDS011;12030;50.376;8.762;2022-12-31T08:09:50;1.93;;;0.70;;
23702;SDS011;12030;50.376;8.762;2022-12-31T08:12:32;3.37;;;0.90;;
23702;SDS011;12030;50.376;8.762;2022-12-31T08:14:59;3.90;;;0.77;;
23702;SDS011;12030;50.376;8.762;2022-12-31T08:17:25;2.80;;;1.07;;
23702;SDS011;12030;50.376;8.762;2022-12-31T08:19:51;1.47;;;0.77;;
23702;SDS011;12030;50.376;8.762;2022-12-31T08:25:02;3.03;;;0.70;;
23702;SDS011;12030;50.376;8.762;2022-12-31T08:27:38;2.17;;;0.90;;
23702;SDS011;12030;50.376;8.762;2022-12-31T08:32:54;1.33;;;0.73;;
23702;SDS011;12030;50.376;8.762;2022-12-31T08:41:00;1.97;;;0.77;;
23702;SDS011;12030;50.376;8.762;2022-12-31T08:43:56;2.30;;;0.87;;
23702;SDS011;12030;50.376;8.762;2022-12-31T08:46:26;1.73;;;1.10;;
23702;SDS011;12030;50.376;8.762;2022-12-31T08:48:56;1.90;;;0.80;;
23702;SDS011;12030;50.376;8.762;2022-12-31T08:51:23;2.23;;;1.00;;
23702;SDS011;12030;50.376;8.762;2022-12-31T08:53:50;1.97;;;0.67;;
23702;SDS011;12030;50.376;8.762;2022-12-31T09:01:40;1.27;;;1.00;;
23702;SDS011;12030;50.376;8.762;2022-12-31T09:09:33;1.10;;;0.90;;
23702;SDS011;12030;50.376;8.762;2022-12-31T09:12:13;1.67;;;0.90;;
23702;SDS011;12030;50.376;8.762;2022-12-31T09:14:47;2.70;;;1.00;;
23702;SDS011;12030;50.376;8.762;2022-12-31T09:17:30;1.50;;;1.03;;
23702;SDS011;12030;50.376;8.762;2022-12-31T09:19:56;1.57;;;1.10;;
23702;SDS011;12030;50.376;8.762;2022-12-31T09:22:22;3.03;;;1.40;;
23702;SDS011;12030;50.376;8.762;2022-12-31T09:24:48;3.33;;;1.10;;
23702;SDS011;12030;50.376;8.762;2022-12-31T09:35:13;2.90;;;1.27;;
23702;SDS011;12030;50.376;8.762;2022-12-31T09:52:05;2.03;;;1.10;;
23702;SDS011;12030;50.376;8.762;2022-12-31T09:54:40;2.27;;;1.47;;
23702;SDS011;12030;50.376;8.762;2022-12-31T09:57:29;3.23;;;1.40;;
23702;SDS011;12030;50.376;8.762;2022-12-31T10:06:03;2.27;;;1.10;;
23702;SDS011;12030;50.376;8.762;2022-12-31T10:29:39;2.63;;;1.37;;
23702;SDS011;12030;50.376;8.762;2022-12-31T10:32:29;3.67;;;1.40;;
23702;SDS011;12030;50.376;8.762;2022-12-31T10:43:32;3.43;;;1.00;;
23702;SDS011;12030;50.376;8.762;2022-12-31T11:17:07;2.47;;;1.37;;
23702;SDS011;12030;50.376;8.762;2022-12-31T11:33:47;2.83;;;1.10;;
23702;SDS011;12030;50.376;8.762;2022-12-31T11:39:18;2.90;;;1.20;;
23702;SDS011;12030;50.376;8.762;2022-12-31T11:41:54;1.90;;;1.20;;
23702;SDS011;12030;50.376;8.762;2022-12-31T11:44:45;2.53;;;1.13;;
23702;SDS011;12030;50.376;8.762;2022-12-31T11:55:33;2.63;;;1.20;;
23702;SDS011;12030;50.376;8.762;2022-12-31T11:58:13;1.87;;;1.20;;
23702;SDS011;12030;50.376;8.762;2022-12-31T12:00:52;2.13;;;1.30;;
23702;SDS011;12030;50.376;8.762;2022-12-31T12:03:28;1.77;;;1.23;;
23702;SDS011;12030;50.376;8.762;2022-12-31T12:05:56;2.37;;;1.30;;
23702;SDS011;12030;50.376;8.762;2022-12-31T12:08:22;1.67;;;1.20;;
23702;SDS011;12030;50.376;8.762;2022-12-31T12:10:51;1.70;;;1.00;;
23702;SDS011;12030;50.376;8.762;2022-12-31T12:13:23;3.80;;;1.73;;
23702;SDS011;12030;50.376;8.762;2022-12-31T12:15:52;2.93;;;1.27;;
23702;SDS011;12030;50.376;8.762;2022-12-31T12:21:11;3.20;;;1.30;;
23702;SDS011;12030;50.376;8.762;2022-12-31T12:23:54;4.03;;;1.33;;
23702;SDS011;12030;50.376;8.762;2022-12-31T12:29:42;2.40;;;1.30;;
23702;SDS011;12030;50.376;8.762;2022-12-31T12:31:55;2.03;;;1.20;;
23702;SDS011;12030;50.376;8.762;2022-12-31T12:36:58;3.57;;;1.37;;
23702;SDS011;12030;50.376;8.762;2022-12-31T12:39:25;2.40;;;1.40;;
23702;SDS011;12030;50.376;8.762;2022-12-31T12:41:59;3.17;;;1.30;;
23702;SDS011;12030;50.376;8.762;2022-12-31T12:44:27;2.70;;;1.23;;
23702;SDS011;12030;50.376;8.762;2022-12-31T12:46:53;4.13;;;1.10;;
23702;SDS011;12030;50.376;8.762;2022-12-31T12:54:56;3.70;;;1.30;;
23702;SDS011;12030;50.376;8.762;2022-12-31T12:57:28;3.03;;;1.10;;
23702;SDS011;12030;50.376;8.762;2022-12-31T13:00:22;2.43;;;1.27;;
23702;SDS011;12030;50.376;8.762;2022-12-31T13:10:52;3.47;;;1.00;;
23702;SDS011;12030;50.376;8.762;2022-12-31T13:13:56;3.77;;;1.30;;
23702;SDS011;12030;50.376;8.762;2022-12-31T13:19:34;2.57;;;1.67;;
23702;SDS011;12030;50.376;8.762;2022-12-31T13:22:31;2.00;;;1.10;;
23702;SDS011;12030;50.376;8.762;2022-12-31T13:25:14;2.73;;;1.30;;
23702;SDS011;12030;50.376;8.762;2022-12-31T13:27:47;1.83;;;1.07;;
23702;SDS011;12030;50.376;8.762;2022-12-31T13:30:18;2.63;;;1.23;;
23702;SDS011;12030;50.376;8.762;2022-12-31T13:32:54;3.60;;;1.17;;
23702;SDS011;12030;50.376;8.762;2022-12-31T13:35:27;4.20;;;1.30;;
23702;SDS011;12030;50.376;8.762;2022-12-31T13:37:59;5.13;;;1.50;;
23702;SDS011;12030;50.376;8.762;2022-12-31T13:40:37;3.93;;;1.20;;
23702;SDS011;12030;50.376;8.762;2022-12-31T13:46:24;2.80;;;1.13;;
23702;SDS011;12030;50.376;8.762;2022-12-31T13:48:57;1.77;;;1.13;;
23702;SDS011;12030;50.376;8.762;2022-12-31T13:51:28;1.20;;;0.87;;
23702;SDS011;12030;50.376;8.762;2022-12-31T13:57:11;3.33;;;1.17;;
23702;SDS011;12030;50.376;8.762;2022-12-31T13:59:58;2.93;;;1.33;;
23702;SDS011;12030;50.376;8.762;2022-12-31T14:02:30;3.10;;;1.10;;
23702;SDS011;12030;50.376;8.762;2022-12-31T14:05:06;1.53;;;1.13;;
23702;SDS011;12030;50.376;8.762;2022-12-31T14:07:43;1.93;;;1.10;;
23702;SDS011;12030;50.376;8.762;2022-12-31T14:10:14;2.10;;;1.20;;
23702;SDS011;12030;50.376;8.762;2022-12-31T14:13:06;1.63;;;1.00;;
23702;SDS011;12030;50.376;8.762;2022-12-31T14:15:59;1.43;;;0.90;;
23702;SDS011;12030;50.376;8.762;2022-12-31T14:18:45;2.40;;;1.20;;
23702;SDS011;12030;50.376;8.762;2022-12-31T14:21:31;2.03;;;1.30;;
23702;SDS011;12030;50.376;8.762;2022-12-31T14:24:05;2.37;;;1.13;;
23702;SDS011;12030;50.376;8.762;2022-12-31T14:26:36;1.77;;;1.20;;
23702;SDS011;12030;50.376;8.762;2022-12-31T14:36:57;2.67;;;1.00;;
23702;SDS011;12030;50.376;8.762;2022-12-31T14:39:42;2.83;;;1.10;;
23702;SDS011;12030;50.376;8.762;2022-12-31T14:42:35;1.40;;;0.93;;
23702;SDS011;12030;50.376;8.762;2022-12-31T14:50:55;2.27;;;1.00;;
23702;SDS011;12030;50.376;8.762;2022-12-31T14:53:25;2.60;;;1.37;;
23702;SDS011;12030;50.376;8.762;2022-12-31T14:56:00;1.97;;;1.30;;
23702;SDS011;12030;50.376;8.762;2022-12-31T14:58:56;2.70;;;1.17;;
23702;SDS011;12030;50.376;8.762;2022-12-31T15:01:25;2.53;;;1.10;;
23702;SDS011;12030;50.376;8.762;2022-12-31T15:03:55;2.00;;;1.10;;
23702;SDS011;12030;50.376;8.762;2022-12-31T15:17:49;1.50;;;1.33;;
23702;SDS011;12030;50.376;8.762;2022-12-31T15:22:55;2.37;;;1.20;;
23702;SDS011;12030;50.376;8.762;2022-12-31T15:25:28;5.07;;;1.00;;
23702;SDS011;12030;50.376;8.762;2022-12-31T15:27:59;2.57;;;1.20;;
23702;SDS011;12030;50.376;8.762;2022-12-31T15:32:52;2.80;;;1.20;;
23702;SDS011;12030;50.376;8.762;2022-12-31T15:37:59;1.37;;;1.10;;
23702;SDS011;12030;50.376;8.762;2022-12-31T15:40:27;2.23;;;1.10;;
23702;SDS011;12030;50.376;8.762;2022-12-31T15:43:11;2.83;;;1.30;;
23702;SDS011;12030;50.376;8.762;2022-12-31T15:45:44;1.37;;;1.03;;
23702;SDS011;12030;50.376;8.762;2022-12-31T15:48:16;1.97;;;1.10;;
23702;SDS011;12030;50.376;8.762;2022-12-31T15:51:29;2.23;;;1.00;;
23702;SDS011;12030;50.376;8.762;2022-12-31T15:54:00;3.17;;;0.83;;
23702;SDS011;12030;50.376;8.762;2022-12-31T15:56:32;1.37;;;0.80;;
23702;SDS011;12030;50.376;8.762;2022-12-31T15:59:03;1.53;;;1.00;;
23702;SDS011;12030;50.376;8.762;2022-12-31T16:01:31;3.70;;;1.47;;
23702;SDS011;12030;50.376;8.762;2022-12-31T16:04:32;3.00;;;1.10;;
23702;SDS011;12030;50.376;8.762;2022-12-31T16:06:52;1.60;;;0.90;;
23702;SDS011;12030;50.376;8.762;2022-12-31T16:09:19;1.53;;;1.20;;
23702;SDS011;12030;50.376;8.762;2022-12-31T16:11:51;2.13;;;1.13;;
23702;SDS011;12030;50.376;8.762;2022-12-31T16:14:21;3.03;;;1.10;;
23702;SDS011;12030;50.376;8.762;2022-12-31T16:16:54;3.87;;;1.00;;
23702;SDS011;12030;50.376;8.762;2022-12-31T16:19:29;2.17;;;1.13;;
23702;SDS011;12030;50.376;8.762;2022-12-31T16:22:14;2.20;;;1.20;;
23702;SDS011;12030;50.376;8.762;2022-12-31T16:24:41;2.77;;;1.10;;
23702;SDS011;12030;50.376;8.762;2022-12-31T16:27:14;2.87;;;1.20;;
23702;SDS011;12030;50.376;8.762;2022-12-31T16:29:45;2.10;;;1.27;;
23702;SDS011;12030;50.376;8.762;2022-12-31T16:32:16;1.30;;;1.10;;
23702;SDS011;12030;50.376;8.762;2022-12-31T16:34:43;2.43;;;1.33;;
23702;SDS011;12030;50.376;8.762;2022-12-31T16:37:27;1.90;;;1.10;;
23702;SDS011;12030;50.376;8.762;2022-12-31T16:42:25;3.00;;;1.10;;
23702;SDS011;12030;50.376;8.762;2022-12-31T16:44:52;4.60;;;1.00;;
23702;SDS011;12030;50.376;8.762;2022-12-31T16:50:16;2.40;;;1.20;;
23702;SDS011;12030;50.376;8.762;2022-12-31T16:52:42;3.83;;;1.17;;
23702;SDS011;12030;50.376;8.762;2022-12-31T16:55:20;3.03;;;1.50;;
23702;SDS011;12030;50.376;8.762;2022-12-31T16:57:49;1.60;;;1.33;;
23702;SDS011;12030;50.376;8.762;2022-12-31T17:00:20;1.30;;;1.20;;
23702;SDS011;12030;50.376;8.762;2022-12-31T17:05:53;2.10;;;1.23;;
23702;SDS011;12030;50.376;8.762;2022-12-31T17:08:23;1.70;;;1.10;;
23702;SDS011;12030;50.376;8.762;2022-12-31T17:10:51;4.23;;;1.23;;
23702;SDS011;12030;50.376;8.762;2022-12-31T17:13:21;2.03;;;1.30;;
23702;SDS011;12030;50.376;8.762;2022-12-31T17:15:48;2.73;;;1.40;;
23702;SDS011;12030;50.376;8.762;2022-12-31T17:18:19;2.27;;;1.30;;
23702;SDS011;12030;50.376;8.762;2022-12-31T17:20:48;2.47;;;1.43;;
23702;SDS011;12030;50.376;8.762;2022-12-31T17:23:22;1.50;;;1.30;;
23702;SDS011;12030;50.376;8.762;2022-12-31T17:25:56;1.90;;;1.50;;
23702;SDS011;12030;50.376;8.762;2022-12-31T17:28:35;1.70;;;1.50;;
23702;SDS011;12030;50.376;8.762;2022-12-31T17:31:24;3.97;;;1.47;;
23702;SDS011;12030;50.376;8.762;2022-12-31T17:34:04;3.97;;;1.40;;
23702;SDS011;12030;50.376;8.762;2022-12-31T17:36:35;2.80;;;1.90;;
23702;SDS011;12030;50.376;8.762;2022-12-31T17:39:17;3.20;;;1.70;;
23702;SDS011;12030;50.376;8.762;2022-12-31T17:41:45;2.53;;;1.60;;
23702;SDS011;12030;50.376;8.762;2022-12-31T17:44:17;2.20;;;1.70;;
23702;SDS011;12030;50.376;8.762;2022-12-31T17:46:46;3.77;;;1.93;;
23702;SDS011;12030;50.376;8.762;2022-12-31T17:49:13;3.93;;;1.60;;
23702;SDS011;12030;50.376;8.762;2022-12-31T17:51:39;3.93;;;1.57;;
23702;SDS011;12030;50.376;8.762;2022-12-31T17:54:07;3.73;;;1.70;;
23702;SDS011;12030;50.376;8.762;2022-12-31T17:56:38;2.63;;;1.70;;
23702;SDS011;12030;50.376;8.762;2022-12-31T17:59:03;2.80;;;1.60;;
23702;SDS011;12030;50.376;8.762;2022-12-31T18:01:30;4.13;;;2.27;;
23702;SDS011;12030;50.376;8.762;2022-12-31T18:03:56;4.77;;;2.00;;
23702;SDS011;12030;50.376;8.762;2022-12-31T18:06:22;2.77;;;1.77;;
23702;SDS011;12030;50.376;8.762;2022-12-31T18:08:48;3.67;;;1.90;;
23702;SDS011;12030;50.376;8.762;2022-12-31T18:11:15;3.37;;;2.07;;
23702;SDS011;12030;50.376;8.762;2022-12-31T18:13:42;3.50;;;2.53;;
23702;SDS011;12030;50.376;8.762;2022-12-31T18:16:08;3.23;;;2.17;;
23702;SDS011;12030;50.376;8.762;2022-12-31T18:18:33;3.70;;;2.37;;
23702;SDS011;12030;50.376;8.762;2022-12-31T18:21:04;3.83;;;2.20;;
23702;SDS011;12030;50.376;8.762;2022-12-31T18:23:34;4.10;;;2.50;;
23702;SDS011;12030;50.376;8.762;2022-12-31T18:26:03;2.90;;;2.27;;
23702;SDS011;12030;50.376;8.762;2022-12-31T18:28:29;4.43;;;2.90;;
23702;SDS011;12030;50.376;8.762;2022-12-31T18:30:54;4.90;;;2.60;;
23702;SDS011;12030;50.376;8.762;2022-12-31T18:33:20;5.20;;;2.60;;
23702;SDS011;12030;50.376;8.762;2022-12-31T18:35:50;4.40;;;2.53;;
23702;SDS011;12030;50.376;8.762;2022-12-31T18:38:17;3.53;;;2.67;;
23702;SDS011;12030;50.376;8.762;2022-12-31T18:40:47;4.47;;;2.40;;
23702;SDS011;12030;50.376;8.762;2022-12-31T18:43:18;4.30;;;2.77;;
23702;SDS011;12030;50.376;8.762;2022-12-31T18:45:44;4.60;;;2.20;;
23702;SDS011;12030;50.376;8.762;2022-12-31T18:48:11;4.93;;;2.40;;
23702;SDS011;12030;50.376;8.762;2022-12-31T18:50:37;4.70;;;2.17;;
23702;SDS011;12030;50.376;8.762;2022-12-31T18:53:03;2.23;;;1.70;;
23702;SDS011;12030;50.376;8.762;2022-12-31T18:55:38;2.37;;;2.10;;
23702;SDS011;12030;50.376;8.762;2022-12-31T18:58:08;3.97;;;1.70;;
23702;SDS011;12030;50.376;8.762;2022-12-31T19:00:34;2.57;;;1.80;;
23702;SDS011;12030;50.376;8.762;2022-12-31T19:03:00;3.27;;;1.77;;
23702;SDS011;12030;50.376;8.762;2022-12-31T19:05:27;2.30;;;1.87;;
23702;SDS011;12030;50.376;8.762;2022-12-31T19:07:54;4.20;;;1.77;;
23702;SDS011;12030;50.376;8.762;2022-12-31T19:10:20;2.73;;;1.70;;
23702;SDS011;12030;50.376;8.762;2022-12-31T19:12:46;2.50;;;1.60;;
23702;SDS011;12030;50.376;8.762;2022-12-31T19:17:51;5.03;;;2.03;;
23702;SDS011;12030;50.376;8.762;2022-12-31T19:20:17;3.83;;;2.30;;
23702;SDS011;12030;50.376;8.762;2022-12-31T19:22:43;2.90;;;2.13;;
23702;SDS011;12030;50.376;8.762;2022-12-31T19:25:16;2.43;;;1.93;;
23702;SDS011;12030;50.376;8.762;2022-12-31T19:27:47;2.23;;;1.57;;
23702;SDS011;12030;50.376;8.762;2022-12-31T19:30:14;2.90;;;1.80;;
23702;SDS011;12030;50.376;8.762;2022-12-31T19:32:52;4.50;;;1.87;;
23702;SDS011;12030;50.376;8.762;2022-12-31T19:35:18;2.70;;;1.57;;